Time;durP1;ratioP1;P1;durP2;ratioP2;P2;SDS_P1;SDS_P2;PMS_P1;PMS_P2;Temp;Humidity;BMP_temperature;BMP_pressure;BME280_temperature;BME280_humidity;BME280_pressure;Samples;Min_cycle;Max_cycle;Signal;HPM_P1;HPM_P2
2022/02/25 00:00:30;;;;;;;9.13;2.05;;;15.30;63.70;;;;;;4161281;28;20053;-60
2022/02/25 00:02:52;;;;;;;8.82;2.28;;;15.30;63.50;;;;;;4161039;28;20095;-59
2022/02/25 00:05:18;;;;;;;5.75;2.05;;;15.30;64.20;;;;;;4161224;28;20045;-60
2022/02/25 00:07:40;;;;;;;6.35;2.17;;;15.30;63.30;;;;;;4160715;28;20097;-60
2022/02/25 00:10:03;;;;;;;9.77;1.88;;;15.30;63.00;;;;;;4161092;28;20155;-60
2022/02/25 00:12:27;;;;;;;9.10;2.17;;;15.30;63.00;;;;;;4161050;28;20781;-60
2022/02/25 00:14:50;;;;;;;8.50;1.85;;;15.30;63.10;;;;;;4160453;28;20451;-60
2022/02/25 00:17:12;;;;;;;6.60;1.70;;;15.30;63.10;;;;;;4176562;28;20072;-60
2022/02/25 00:19:34;;;;;;;18.67;3.13;;;15.20;64.00;;;;;;4177217;28;20412;-60
2022/02/25 00:21:56;;;;;;;3.97;1.20;;;15.20;63.20;;;;;;4177244;28;20132;-60
2022/02/25 00:24:19;;;;;;;5.07;2.22;;;15.20;63.10;;;;;;4177287;28;20045;-60
2022/02/25 00:26:41;;;;;;;12.10;2.13;;;15.20;63.40;;;;;;4176720;28;20515;-60
2022/02/25 00:29:06;;;;;;;10.30;1.45;;;15.20;63.50;;;;;;4177033;28;20067;-61
2022/02/25 00:31:28;;;;;;;9.25;1.60;;;15.20;63.50;;;;;;4176020;28;20110;-60
2022/02/25 00:33:51;;;;;;;7.78;1.50;;;15.20;63.30;;;;;;4175830;28;20414;-60
2022/02/25 00:36:13;;;;;;;5.97;1.95;;;15.30;63.40;;;;;;4161407;28;20120;-61
2022/02/25 00:38:35;;;;;;;9.00;2.22;;;15.30;63.30;;;;;;4176438;28;20059;-61
2022/02/25 00:40:57;;;;;;;9.90;3.20;;;15.30;63.10;;;;;;4176871;28;20412;-60
2022/02/25 00:43:20;;;;;;;8.93;1.95;;;15.20;63.20;;;;;;4176856;28;20049;-59
2022/02/25 00:45:43;;;;;;;10.40;1.73;;;15.20;63.10;;;;;;4177052;28;20099;-60
2022/02/25 00:48:06;;;;;;;16.00;1.80;;;15.20;63.10;;;;;;4176413;28;20136;-60
2022/02/25 00:50:29;;;;;;;6.55;1.77;;;15.20;63.40;;;;;;4176515;28;20051;-60
2022/02/25 00:52:50;;;;;;;7.72;1.73;;;15.30;63.30;;;;;;4176503;28;20103;-59
2022/02/25 00:55:12;;;;;;;10.02;1.40;;;15.30;63.10;;;;;;4176211;28;20495;-59
2022/02/25 00:57:35;;;;;;;10.20;1.85;;;15.40;63.70;;;;;;4176534;28;20048;-59
2022/02/25 00:59:57;;;;;;;7.78;2.20;;;15.40;62.90;;;;;;4176852;28;20048;-59
2022/02/25 01:02:20;;;;;;;11.60;1.85;;;15.40;62.60;;;;;;4176217;28;20049;-60
2022/02/25 01:04:44;;;;;;;9.45;1.77;;;15.40;62.50;;;;;;4175951;28;20416;-59
2022/02/25 01:07:06;;;;;;;7.05;1.95;;;15.40;62.60;;;;;;4176382;28;20095;-59
2022/02/25 01:09:28;;;;;;;8.48;1.92;;;15.40;62.50;;;;;;4175318;28;20069;-60
2022/02/25 01:11:53;;;;;;;6.05;1.52;;;15.40;63.50;;;;;;4176217;28;20053;-60
2022/02/25 01:14:15;;;;;;;10.57;2.20;;;15.40;62.70;;;;;;4175933;28;20048;-59
2022/02/25 01:16:37;;;;;;;8.20;1.92;;;15.40;62.90;;;;;;4176068;28;20167;-60
2022/02/25 01:19:01;;;;;;;6.47;1.73;;;15.50;63.00;;;;;;4175079;28;20041;-59
2022/02/25 01:21:23;;;;;;;8.75;1.83;;;15.60;62.70;;;;;;4176037;28;20045;-60
2022/02/25 01:23:45;;;;;;;8.93;1.67;;;15.60;62.20;;;;;;4175590;28;20114;-59
2022/02/25 01:26:07;;;;;;;10.43;2.35;;;15.70;61.90;;;;;;4176516;28;20107;-59
2022/02/25 01:28:30;;;;;;;7.60;1.92;;;15.70;61.80;;;;;;4176064;28;20132;-60
2022/02/25 01:30:53;;;;;;;6.20;1.25;;;15.70;61.60;;;;;;4174910;28;20053;-60
2022/02/25 01:33:15;;;;;;;9.32;2.00;;;15.70;61.40;;;;;;4176240;28;20045;-59
2022/02/25 01:35:39;;;;;;;7.65;2.10;;;15.70;61.40;;;;;;4174753;28;20413;-59
2022/02/25 01:38:01;;;;;;;7.32;1.92;;;15.70;62.50;;;;;;4175957;28;20052;-59
2022/02/25 01:40:23;;;;;;;7.18;1.80;;;15.70;61.50;;;;;;4176031;28;20128;-59
2022/02/25 01:42:47;;;;;;;13.40;3.15;;;15.60;61.50;;;;;;4174596;28;20061;-60
2022/02/25 01:45:09;;;;;;;9.98;1.92;;;15.60;61.80;;;;;;4175895;28;20972;-59
2022/02/25 01:47:31;;;;;;;6.28;2.00;;;15.60;61.60;;;;;;4174954;28;20476;-59
2022/02/25 01:49:54;;;;;;;8.68;2.00;;;15.60;61.30;;;;;;4175742;28;20068;-59
2022/02/25 01:52:20;;;;;;;9.90;1.98;;;15.50;61.30;;;;;;4175620;28;20051;-59
2022/02/25 01:54:43;;;;;;;6.25;1.80;;;15.50;61.90;;;;;;4175209;28;20041;-60
2022/02/25 01:57:06;;;;;;;8.23;2.03;;;15.50;61.90;;;;;;4174485;28;20044;-59
2022/02/25 01:59:29;;;;;;;8.05;2.65;;;15.50;62.10;;;;;;4174425;28;20049;-59
2022/02/25 02:01:52;;;;;;;11.05;1.98;;;15.50;62.10;;;;;;4175270;28;20076;-60
2022/02/25 02:04:14;;;;;;;9.60;1.80;;;15.50;62.40;;;;;;4175753;28;20569;-61
2022/02/25 02:06:37;;;;;;;7.68;1.60;;;15.50;62.50;;;;;;4175380;28;20094;-61
2022/02/25 02:09:01;;;;;;;4.53;1.40;;;15.60;62.30;;;;;;4175631;28;20051;-61
2022/02/25 02:11:33;;;;;;;9.63;2.28;;;15.70;61.70;;;;;;4175403;28;20401;-61
2022/02/25 02:13:55;;;;;;;5.35;1.75;;;15.70;62.00;;;;;;4163089;28;20517;-61
2022/02/25 02:16:17;;;;;;;7.70;2.13;;;15.80;61.20;;;;;;4175691;28;20072;-61
2022/02/25 02:18:39;;;;;;;9.52;1.83;;;15.90;61.10;;;;;;4175803;28;20091;-61
2022/02/25 02:21:02;;;;;;;7.88;1.52;;;15.80;61.00;;;;;;4175760;28;20057;-61
2022/02/25 02:23:25;;;;;;;13.05;2.17;;;15.80;61.00;;;;;;4173989;28;20049;-60
2022/02/25 02:25:50;;;;;;;9.18;1.90;;;15.80;61.10;;;;;;4175118;28;20060;-61
2022/02/25 02:28:19;;;;;;;9.75;1.90;;;15.70;61.10;;;;;;4174765;28;20068;-61
2022/02/25 02:30:40;;;;;;;8.68;2.25;;;15.70;61.10;;;;;;4158691;28;20665;-61
2022/02/25 02:33:03;;;;;;;7.32;1.60;;;15.70;61.60;;;;;;4173416;28;20045;-61
2022/02/25 02:35:26;;;;;;;10.38;2.20;;;15.80;61.30;;;;;;4158638;28;20049;-61
2022/02/25 02:37:48;;;;;;;6.93;1.63;;;15.80;61.10;;;;;;4158885;28;20516;-60
2022/02/25 02:40:12;;;;;;;10.73;2.13;;;15.80;61.00;;;;;;4158781;28;20055;-60
2022/02/25 02:42:34;;;;;;;10.82;2.10;;;15.80;61.00;;;;;;4168494;28;20540;-61
2022/02/25 02:44:56;;;;;;;6.25;2.45;;;15.80;60.90;;;;;;4175198;28;20052;-61
2022/02/25 02:47:18;;;;;;;9.63;2.30;;;15.80;61.00;;;;;;4175245;28;20053;-60
2022/02/25 02:49:41;;;;;;;9.40;1.70;;;15.70;60.90;;;;;;4175406;28;20128;-60
2022/02/25 02:52:06;;;;;;;10.23;2.00;;;15.70;61.20;;;;;;4175031;28;20087;-61
2022/02/25 02:54:28;;;;;;;12.60;3.13;;;15.80;61.20;;;;;;4175496;28;20481;-58
2022/02/25 02:56:51;;;;;;;8.13;1.70;;;15.70;61.10;;;;;;4174989;28;20057;-61
2022/02/25 02:59:14;;;;;;;7.50;1.73;;;15.70;62.10;;;;;;4174599;28;20041;-61
2022/02/25 03:01:36;;;;;;;8.90;1.63;;;15.70;61.10;;;;;;4174868;28;20523;-61
2022/02/25 03:03:59;;;;;;;8.55;2.50;;;15.70;61.20;;;;;;4175025;28;20041;-59
2022/02/25 03:06:22;;;;;;;9.23;2.08;;;15.70;61.00;;;;;;4175475;28;20079;-60
2022/02/25 03:08:45;;;;;;;9.55;2.05;;;15.70;60.90;;;;;;4174149;28;20056;-59
2022/02/25 03:11:07;;;;;;;10.13;2.08;;;15.70;61.20;;;;;;4174622;28;20110;-60
2022/02/25 03:13:30;;;;;;;9.10;1.85;;;15.70;61.40;;;;;;4178406;28;20659;-58
2022/02/25 03:15:52;;;;;;;11.35;1.75;;;15.70;61.20;;;;;;4178467;28;20637;-59
2022/02/25 03:18:15;;;;;;;11.52;3.13;;;15.70;61.30;;;;;;4176942;28;20080;-61
2022/02/25 03:20:37;;;;;;;6.68;1.52;;;15.60;61.20;;;;;;4178200;28;20133;-59
2022/02/25 03:23:00;;;;;;;7.15;1.88;;;15.60;61.20;;;;;;4178271;28;20056;-59
2022/02/25 03:25:23;;;;;;;8.27;1.90;;;15.60;61.30;;;;;;4177882;28;20130;-59
2022/02/25 03:27:46;;;;;;;12.10;1.95;;;15.70;61.30;;;;;;4177489;28;20140;-59
2022/02/25 03:30:12;;;;;;;12.48;2.22;;;15.70;62.30;;;;;;4177835;28;20504;-59
2022/02/25 03:32:34;;;;;;;9.48;2.72;;;15.70;61.30;;;;;;4178240;28;20072;-59
2022/02/25 03:34:56;;;;;;;10.90;2.20;;;15.70;61.20;;;;;;4177565;28;20037;-59
2022/02/25 03:37:19;;;;;;;7.65;2.28;;;15.80;61.00;;;;;;4177950;28;20114;-59
2022/02/25 03:39:41;;;;;;;9.32;2.47;;;15.80;60.60;;;;;;4177957;28;20083;-59
2022/02/25 03:42:04;;;;;;;7.80;2.20;;;15.80;61.00;;;;;;4177724;28;20052;-59
2022/02/25 03:44:26;;;;;;;7.70;1.92;;;15.90;61.00;;;;;;4177710;28;20053;-59
2022/02/25 03:46:50;;;;;;;8.48;2.15;;;15.90;60.60;;;;;;4177841;28;20820;-59
2022/02/25 03:49:14;;;;;;;7.47;1.80;;;16.00;60.10;;;;;;4177837;28;20048;-59
2022/02/25 03:51:36;;;;;;;13.48;2.50;;;16.10;59.60;;;;;;4177056;28;20059;-60
2022/02/25 03:53:58;;;;;;;10.38;2.17;;;16.10;59.90;;;;;;4175665;28;20052;-60
2022/02/25 03:56:20;;;;;;;7.55;1.75;;;16.10;59.80;;;;;;4177728;28;20049;-60
2022/02/25 03:58:43;;;;;;;11.02;2.50;;;16.10;59.60;;;;;;4177561;28;20055;-60
2022/02/25 04:01:05;;;;;;;6.90;1.95;;;16.00;59.70;;;;;;4169608;28;20102;-59
2022/02/25 04:03:28;;;;;;;7.38;1.88;;;16.00;59.90;;;;;;4177275;28;20160;-60
2022/02/25 04:05:51;;;;;;;12.45;2.13;;;16.00;60.00;;;;;;4177582;28;20179;-60
2022/02/25 04:08:13;;;;;;;8.15;2.50;;;15.90;60.10;;;;;;4177575;28;20140;-60
2022/02/25 04:10:35;;;;;;;9.15;2.22;;;15.90;60.20;;;;;;4176968;28;20045;-61
2022/02/25 04:12:58;;;;;;;8.75;2.47;;;15.90;60.30;;;;;;4177147;28;20044;-61
2022/02/25 04:15:21;;;;;;;8.07;2.47;;;15.80;60.40;;;;;;4176423;28;20110;-61
2022/02/25 04:17:43;;;;;;;9.70;2.30;;;15.70;60.70;;;;;;4176157;28;20049;-60
2022/02/25 04:20:09;;;;;;;8.98;2.30;;;15.70;60.90;;;;;;4177113;28;20052;-59
2022/02/25 04:22:32;;;;;;;11.23;2.58;;;15.80;60.70;;;;;;4177138;28;20534;-60
2022/02/25 04:24:54;;;;;;;7.25;1.83;;;15.90;60.60;;;;;;4174852;28;20508;-59
2022/02/25 04:27:17;;;;;;;8.32;2.25;;;15.90;60.50;;;;;;4176851;28;20048;-60
2022/02/25 04:29:41;;;;;;;11.35;2.25;;;16.00;60.40;;;;;;4176785;28;20106;-60
2022/02/25 04:32:03;;;;;;;9.35;1.95;;;16.00;60.20;;;;;;4177191;28;20386;-60
2022/02/25 04:34:28;;;;;;;10.40;2.60;;;16.00;60.00;;;;;;4175020;28;20060;-60
2022/02/25 04:36:51;;;;;;;9.73;2.72;;;16.10;60.00;;;;;;4177070;28;20052;-60
2022/02/25 04:39:13;;;;;;;9.65;1.83;;;16.00;59.80;;;;;;4176852;28;20053;-60
2022/02/25 04:41:35;;;;;;;7.05;1.92;;;16.00;59.80;;;;;;4176603;28;20411;-60
2022/02/25 04:43:59;;;;;;;5.32;1.67;;;16.00;59.80;;;;;;4161316;28;20041;-60
2022/02/25 04:46:27;;;;;;;7.25;1.70;;;15.90;59.80;;;;;;4160643;28;20500;-60
2022/02/25 04:48:49;;;;;;;5.15;2.05;;;15.90;59.90;;;;;;4158937;28;20057;-60
2022/02/25 04:51:12;;;;;;;7.70;2.15;;;15.90;59.90;;;;;;4160023;28;20052;-60
2022/02/25 04:53:36;;;;;;;7.82;1.65;;;15.90;59.80;;;;;;4158814;28;20056;-60
2022/02/25 04:55:58;;;;;;;11.88;2.53;;;15.90;59.90;;;;;;4160006;28;20057;-60
2022/02/25 04:58:20;;;;;;;7.22;2.10;;;15.90;59.90;;;;;;4160086;28;20413;-59
2022/02/25 05:00:43;;;;;;;6.07;2.00;;;15.90;60.00;;;;;;4160248;28;20544;-60
2022/02/25 05:03:05;;;;;;;9.80;2.58;;;15.80;59.90;;;;;;4158474;28;20049;-60
2022/02/25 05:05:27;;;;;;;12.05;3.00;;;15.80;60.10;;;;;;4160232;28;20175;-61
2022/02/25 05:07:50;;;;;;;9.65;2.13;;;15.80;60.20;;;;;;4159952;28;20060;-60
2022/02/25 05:10:14;;;;;;;9.90;2.60;;;15.80;60.50;;;;;;4159817;28;20084;-60
2022/02/25 05:12:37;;;;;;;9.80;2.80;;;15.80;60.40;;;;;;4159190;28;20095;-61
2022/02/25 05:20:24;;;;;;;11.98;2.28;;;15.90;59.80;;;;;;4176088;28;20809;-61
2022/02/25 05:22:46;;;;;;;12.27;2.40;;;15.90;59.60;;;;;;4176142;28;20433;-61
2022/02/25 05:25:09;;;;;;;8.93;2.15;;;15.90;60.70;;;;;;4175935;28;20052;-61
2022/02/25 05:27:33;;;;;;;17.88;2.92;;;15.90;59.60;;;;;;4159299;28;20053;-62
2022/02/25 05:29:55;;;;;;;8.13;1.90;;;16.00;59.40;;;;;;4171916;28;20102;-61
2022/02/25 05:32:17;;;;;;;7.05;2.35;;;16.00;59.40;;;;;;4176077;28;20090;-61
2022/02/25 05:34:40;;;;;;;9.10;2.40;;;16.00;59.40;;;;;;4174939;28;20057;-60
2022/02/25 05:37:02;;;;;;;7.68;1.48;;;16.00;59.50;;;;;;4176157;28;20053;-61
2022/02/25 05:39:24;;;;;;;9.32;2.22;;;15.90;59.50;;;;;;4170377;28;20068;-61
2022/02/25 05:41:46;;;;;;;7.95;2.05;;;16.00;59.50;;;;;;4162046;28;20049;-60
2022/02/25 05:44:10;;;;;;;12.95;2.92;;;16.00;59.60;;;;;;4175976;28;20049;-60
2022/02/25 05:46:35;;;;;;;6.97;2.13;;;16.00;59.50;;;;;;4175564;28;20122;-60
2022/02/25 05:48:58;;;;;;;13.60;2.92;;;16.00;59.30;;;;;;4174491;28;20091;-61
2022/02/25 05:51:20;;;;;;;7.45;2.05;;;16.00;59.30;;;;;;4175609;28;20148;-60
2022/02/25 05:53:42;;;;;;;10.75;2.92;;;16.00;59.20;;;;;;4174041;28;20077;-61
2022/02/25 05:56:05;;;;;;;9.15;2.42;;;16.00;59.20;;;;;;4175817;28;20041;-60
2022/02/25 05:58:27;;;;;;;9.10;2.20;;;16.00;59.00;;;;;;4175394;28;20073;-61
2022/02/25 06:00:51;;;;;;;10.52;2.72;;;16.00;59.10;;;;;;4175916;28;20366;-60
2022/02/25 06:03:15;;;;;;;11.15;2.53;;;16.00;59.20;;;;;;4175450;28;20134;-61
2022/02/25 06:05:38;;;;;;;8.32;2.25;;;16.00;59.10;;;;;;4175014;28;20374;-60
2022/02/25 06:08:00;;;;;;;9.77;2.53;;;16.00;59.20;;;;;;4174113;28;20098;-60
2022/02/25 06:10:25;;;;;;;13.07;2.38;;;16.00;58.90;;;;;;4176168;28;20426;-60
2022/02/25 06:12:47;;;;;;;8.40;2.20;;;15.90;59.10;;;;;;4175853;28;20048;-60
2022/02/25 06:15:10;;;;;;;15.13;2.58;;;15.90;59.30;;;;;;4175582;28;20057;-60
2022/02/25 06:17:34;;;;;;;9.25;2.30;;;15.90;59.40;;;;;;4175576;28;20132;-60
2022/02/25 06:19:56;;;;;;;8.85;2.72;;;15.90;59.00;;;;;;4174989;28;20060;-60
2022/02/25 06:22:19;;;;;;;11.65;2.80;;;16.00;58.80;;;;;;4175557;28;20059;-60
2022/02/25 06:24:41;;;;;;;10.60;2.55;;;16.00;59.20;;;;;;4175723;28;20069;-60
2022/02/25 06:27:04;;;;;;;8.82;2.67;;;16.00;59.20;;;;;;4175861;28;20063;-60
2022/02/25 06:29:26;;;;;;;9.18;2.20;;;16.00;59.20;;;;;;4159271;28;20111;-60
2022/02/25 06:31:48;;;;;;;6.65;2.20;;;16.00;59.00;;;;;;4159071;28;20072;-59
2022/02/25 06:34:12;;;;;;;5.75;1.35;;;15.90;58.90;;;;;;4159032;28;20046;-61
2022/02/25 06:36:34;;;;;;;6.22;2.00;;;15.90;59.00;;;;;;4168000;28;20052;-61
2022/02/25 06:38:56;;;;;;;9.68;2.30;;;15.90;59.80;;;;;;4174727;28;20456;-60
2022/02/25 06:41:19;;;;;;;6.40;1.50;;;15.90;59.10;;;;;;4175318;28;20041;-59
2022/02/25 06:43:41;;;;;;;7.68;1.65;;;15.80;59.00;;;;;;4175532;28;20448;-59
2022/02/25 06:46:03;;;;;;;9.77;2.17;;;15.80;59.30;;;;;;4175212;28;20076;-59
2022/02/25 06:48:25;;;;;;;6.90;2.08;;;15.80;60.30;;;;;;4178665;28;20086;-59
2022/02/25 06:50:49;;;;;;;10.63;1.75;;;15.90;59.50;;;;;;4178716;28;20057;-60
2022/02/25 06:53:12;;;;;;;10.25;2.28;;;15.90;59.40;;;;;;4178279;28;20119;-59
2022/02/25 06:55:34;;;;;;;8.82;1.90;;;15.90;59.10;;;;;;4178681;28;20079;-59
2022/02/25 06:57:56;;;;;;;8.25;2.10;;;16.00;59.30;;;;;;4178473;28;20503;-59
2022/02/25 07:00:21;;;;;;;5.63;1.58;;;15.90;59.20;;;;;;4178361;28;20061;-60
2022/02/25 07:02:43;;;;;;;8.43;2.33;;;15.90;59.30;;;;;;4178286;28;20049;-60
2022/02/25 07:05:08;;;;;;;6.90;2.20;;;15.90;59.50;;;;;;4174658;28;20516;-60
2022/02/25 07:07:31;;;;;;;6.70;1.65;;;15.90;60.20;;;;;;4178130;28;20828;-60
2022/02/25 07:09:53;;;;;;;5.53;1.95;;;15.90;61.30;;;;;;4178120;28;20052;-60
2022/02/25 07:12:16;;;;;;;9.13;2.05;;;15.90;61.30;;;;;;4176320;28;20135;-59
2022/02/25 07:14:39;;;;;;;6.50;1.92;;;15.90;60.90;;;;;;4177507;28;20106;-60
2022/02/25 07:17:02;;;;;;;10.85;2.33;;;16.00;60.70;;;;;;4177324;28;20072;-59
2022/02/25 07:19:24;;;;;;;7.97;1.70;;;16.00;60.60;;;;;;4161891;28;20065;-60
2022/02/25 07:21:47;;;;;;;6.43;2.10;;;15.90;60.60;;;;;;4161633;28;20049;-59
2022/02/25 07:24:12;;;;;;;10.18;2.20;;;15.90;60.60;;;;;;4167833;28;20490;-61
2022/02/25 07:26:35;;;;;;;8.60;2.63;;;15.90;60.80;;;;;;4161704;28;20057;-60
2022/02/25 07:28:57;;;;;;;8.52;2.00;;;15.90;60.70;;;;;;4169648;28;20056;-60
2022/02/25 07:31:22;;;;;;;9.80;2.28;;;15.90;60.80;;;;;;4178440;28;20069;-60
2022/02/25 07:33:44;;;;;;;8.02;1.40;;;15.90;61.60;;;;;;4177894;28;20048;-59
2022/02/25 07:36:07;;;;;;;9.23;2.45;;;15.90;60.80;;;;;;4177867;28;20065;-60
2022/02/25 07:38:28;;;;;;;7.90;2.15;;;16.00;60.80;;;;;;4177461;28;20053;-60
2022/02/25 07:40:52;;;;;;;9.45;2.38;;;16.00;60.70;;;;;;4177506;28;20049;-60
2022/02/25 07:43:18;;;;;;;14.25;2.42;;;16.00;60.70;;;;;;4177745;28;20117;-59
2022/02/25 07:45:41;;;;;;;13.57;2.88;;;15.90;60.60;;;;;;4177082;28;20060;-60
2022/02/25 07:48:05;;;;;;;9.52;1.80;;;15.90;60.90;;;;;;4177585;28;20083;-59
2022/02/25 07:50:28;;;;;;;11.20;2.83;;;15.80;61.00;;;;;;4176375;28;20119;-60
2022/02/25 07:52:50;;;;;;;11.05;2.65;;;15.80;61.00;;;;;;4176694;28;20122;-59
2022/02/25 07:55:14;;;;;;;13.13;2.50;;;15.80;61.20;;;;;;4177604;28;20040;-60
2022/02/25 07:57:37;;;;;;;10.57;3.20;;;15.80;61.30;;;;;;4177706;28;20099;-58
2022/02/25 08:00:17;;;;;;;11.68;3.13;;;15.70;61.40;;;;;;4176863;28;20052;-59
2022/02/25 08:02:39;;;;;;;10.60;2.60;;;15.70;61.50;;;;;;4175346;28;20045;-58
2022/02/25 08:05:01;;;;;;;15.52;3.03;;;15.70;61.50;;;;;;4175559;28;20059;-60
2022/02/25 08:07:26;;;;;;;15.85;3.60;;;15.70;61.60;;;;;;4175995;28;20055;-59
2022/02/25 08:09:49;;;;;;;14.77;3.40;;;15.70;61.90;;;;;;4175464;28;20064;-59
2022/02/25 08:12:12;;;;;;;11.23;3.15;;;15.70;61.60;;;;;;4177172;28;20075;-59
2022/02/25 08:14:37;;;;;;;11.70;3.70;;;15.70;61.70;;;;;;4171306;28;20055;-60
2022/02/25 08:16:59;;;;;;;11.48;3.97;;;15.70;61.80;;;;;;4176617;28;20056;-59
2022/02/25 08:19:21;;;;;;;13.90;3.47;;;15.60;61.80;;;;;;4161508;28;20059;-59
2022/02/25 08:21:44;;;;;;;15.82;3.53;;;15.60;62.20;;;;;;4159305;28;20068;-60
2022/02/25 08:24:10;;;;;;;12.88;3.85;;;15.60;62.20;;;;;;4160363;28;20477;-60
2022/02/25 08:26:32;;;;;;;12.95;3.95;;;15.70;62.50;;;;;;4160406;28;20080;-60
2022/02/25 08:28:55;;;;;;;11.50;2.72;;;15.70;62.70;;;;;;4158444;28;20131;-60
2022/02/25 08:31:20;;;;;;;14.43;3.15;;;15.80;63.00;;;;;;4156201;28;20132;-60
2022/02/25 08:33:42;;;;;;;14.30;3.17;;;15.90;61.70;;;;;;4160443;28;20053;-60
2022/02/25 08:36:05;;;;;;;10.50;3.13;;;16.00;60.80;;;;;;4160578;28;20052;-60
2022/02/25 08:38:30;;;;;;;11.00;3.10;;;16.00;60.10;;;;;;4158778;28;20056;-59
2022/02/25 08:40:52;;;;;;;16.67;2.97;;;16.10;59.90;;;;;;4160525;28;20057;-59
2022/02/25 08:43:14;;;;;;;8.45;2.65;;;16.00;59.80;;;;;;4160792;28;20453;-59
2022/02/25 08:45:49;;;;;;;16.38;3.13;;;16.00;59.70;;;;;;4160466;28;20421;-60
2022/02/25 08:48:12;;;;;;;11.63;2.75;;;15.90;59.70;;;;;;4160133;28;20045;-59
2022/02/25 08:50:35;;;;;;;16.33;2.97;;;15.80;59.80;;;;;;4160253;28;20052;-60
2022/02/25 08:52:57;;;;;;;11.48;2.40;;;15.70;59.80;;;;;;4160212;28;20077;-59
2022/02/25 08:55:21;;;;;;;11.90;2.00;;;15.70;60.00;;;;;;4159881;28;20052;-59
2022/02/25 08:57:43;;;;;;;12.32;2.40;;;15.60;60.00;;;;;;4160211;28;20462;-59
2022/02/25 09:00:08;;;;;;;13.60;2.70;;;15.50;60.20;;;;;;4160104;28;20053;-59
2022/02/25 09:02:30;;;;;;;18.17;2.78;;;15.50;60.40;;;;;;4160129;28;20405;-58
2022/02/25 09:04:53;;;;;;;8.85;2.60;;;15.40;60.50;;;;;;4159750;28;20156;-59
2022/02/25 09:07:17;;;;;;;13.05;2.78;;;15.40;60.80;;;;;;4159473;28;20064;-59
2022/02/25 09:09:40;;;;;;;13.13;3.40;;;15.30;60.70;;;;;;4159694;28;20147;-58
2022/02/25 09:12:02;;;;;;;16.48;2.50;;;15.30;60.80;;;;;;4159955;28;20155;-59
2022/02/25 09:14:24;;;;;;;9.50;1.73;;;15.30;60.90;;;;;;4160196;28;20120;-59
2022/02/25 09:16:47;;;;;;;9.80;2.55;;;15.30;60.70;;;;;;4159931;28;20166;-59
2022/02/25 09:19:09;;;;;;;13.30;2.50;;;15.30;60.70;;;;;;4159971;28;20045;-59
2022/02/25 09:21:32;;;;;;;8.80;2.20;;;15.30;60.70;;;;;;4159582;28;20069;-60
2022/02/25 09:23:55;;;;;;;6.05;2.03;;;15.30;60.70;;;;;;4159817;28;20068;-60
2022/02/25 09:26:17;;;;;;;10.38;2.60;;;15.30;60.70;;;;;;4159322;28;20052;-59
2022/02/25 09:28:42;;;;;;;17.33;2.45;;;15.30;60.70;;;;;;4159204;28;20049;-59
2022/02/25 09:31:06;;;;;;;11.73;2.25;;;15.40;60.70;;;;;;4159320;28;20056;-60
2022/02/25 09:33:29;;;;;;;11.98;2.20;;;15.40;60.70;;;;;;4158282;28;20045;-59
2022/02/25 09:35:51;;;;;;;10.60;2.65;;;15.50;60.80;;;;;;4159518;28;20058;-60
2022/02/25 09:38:14;;;;;;;14.30;2.67;;;15.50;60.50;;;;;;4159491;28;20053;-59
2022/02/25 09:40:41;;;;;;;15.35;2.13;;;15.60;60.10;;;;;;4159782;28;20045;-60
2022/02/25 09:43:04;;;;;;;13.73;2.20;;;15.70;59.90;;;;;;4159465;28;20049;-60
2022/02/25 09:45:27;;;;;;;12.45;2.97;;;15.80;59.80;;;;;;4159582;28;20053;-60
2022/02/25 09:47:50;;;;;;;14.13;2.90;;;15.80;59.30;;;;;;4159436;28;20061;-59
2022/02/25 09:50:14;;;;;;;12.68;2.40;;;15.90;59.20;;;;;;4159523;28;20046;-60
2022/02/25 09:52:38;;;;;;;14.80;2.90;;;15.90;59.20;;;;;;4159264;28;20044;-59
2022/02/25 09:55:02;;;;;;;11.95;2.55;;;15.90;59.10;;;;;;4159005;28;20195;-60
2022/02/25 09:57:25;;;;;;;17.40;3.10;;;15.90;59.20;;;;;;4159364;28;20041;-60
2022/02/25 09:59:49;;;;;;;9.57;1.85;;;16.00;59.30;;;;;;4157898;28;20736;-59
2022/02/25 10:02:12;;;;;;;8.27;2.10;;;16.00;59.20;;;;;;4158050;28;20055;-59
2022/02/25 10:04:35;;;;;;;7.00;1.73;;;16.00;59.10;;;;;;4159175;28;20114;-60
2022/02/25 10:06:58;;;;;;;11.88;2.38;;;16.10;59.00;;;;;;4159561;28;20052;-60
2022/02/25 10:09:32;;;;;;;6.93;2.13;;;16.10;58.80;;;;;;4159265;28;20056;-60
2022/02/25 10:12:06;;;;;;;8.30;2.45;;;16.10;58.70;;;;;;4159785;28;20065;-60
2022/02/25 10:14:37;;;;;;;6.32;1.30;;;16.00;58.70;;;;;;4158721;28;20103;-59
2022/02/25 10:17:10;;;;;;;6.38;1.20;;;16.00;58.70;;;;;;4156843;28;20061;-60
2022/02/25 10:19:33;;;;;;;4.20;0.90;;;16.00;58.70;;;;;;4159023;28;20048;-60
2022/02/25 10:22:13;;;;;;;4.20;1.17;;;16.00;58.90;;;;;;4160141;28;20042;-59
2022/02/25 10:24:44;;;;;;;3.28;0.85;;;15.90;59.00;;;;;;4162422;28;20049;-60
2022/02/25 10:27:17;;;;;;;3.95;1.15;;;15.90;59.00;;;;;;4161340;28;20136;-62
2022/02/25 10:29:52;;;;;;;5.30;1.15;;;15.90;58.90;;;;;;4159716;28;20162;-62
2022/02/25 10:32:15;;;;;;;9.75;1.50;;;16.00;58.70;;;;;;4160957;28;20443;-62
2022/02/25 10:34:37;;;;;;;8.32;1.30;;;16.00;58.50;;;;;;4160894;28;20057;-63
2022/02/25 10:37:00;;;;;;;6.38;1.40;;;16.00;58.90;;;;;;4162367;28;20045;-60
2022/02/25 10:39:25;;;;;;;10.55;1.92;;;16.00;59.40;;;;;;4161071;28;20437;-59
2022/02/25 10:42:02;;;;;;;6.68;2.70;;;16.00;59.30;;;;;;4144097;28;20046;-60
2022/02/25 10:44:41;;;;;;;9.48;2.50;;;15.90;59.30;;;;;;4143770;28;20046;-59
2022/02/25 10:47:12;;;;;;;6.50;1.90;;;15.90;59.60;;;;;;4144191;28;20069;-60
2022/02/25 10:49:35;;;;;;;9.75;3.42;;;15.90;59.70;;;;;;4152799;28;20046;-60
2022/02/25 10:51:58;;;;;;;12.95;3.42;;;15.90;59.70;;;;;;4148694;28;20117;-60
2022/02/25 10:54:36;;;;;;;12.23;2.47;;;15.90;59.90;;;;;;4142504;28;20156;-63
2022/02/25 10:57:12;;;;;;;8.43;1.83;;;15.90;60.00;;;;;;4145117;28;20451;-61
2022/02/25 10:59:44;;;;;;;2.80;1.70;;;15.90;59.80;;;;;;4145468;28;20045;-61
2022/02/25 11:02:34;;;;;;;9.10;2.50;;;15.80;60.20;;;;;;4148051;28;20071;-60
2022/02/25 11:05:02;;;;;;;11.30;2.97;;;15.80;59.70;;;;;;4143300;28;20073;-60
2022/02/25 11:07:24;;;;;;;2.97;1.00;;;15.80;60.10;;;;;;4158778;28;20147;-59
2022/02/25 11:09:46;;;;;;;4.85;1.25;;;15.80;60.30;;;;;;4157318;28;20746;-60
2022/02/25 11:12:09;;;;;;;5.38;1.10;;;15.80;60.30;;;;;;4155384;28;20061;-60
2022/02/25 11:14:31;;;;;;;9.98;1.50;;;15.90;60.20;;;;;;4143886;28;20046;-60
2022/02/25 11:16:55;;;;;;;3.88;0.98;;;16.00;60.00;;;;;;4143297;28;20050;-60
2022/02/25 11:19:18;;;;;;;7.35;1.15;;;16.00;59.80;;;;;;4143019;28;20370;-60
2022/02/25 11:21:40;;;;;;;5.43;1.25;;;16.10;59.80;;;;;;4143472;28;20054;-60
2022/02/25 11:24:06;;;;;;;4.75;1.35;;;16.20;59.70;;;;;;4155358;28;20054;-60
2022/02/25 11:26:29;;;;;;;6.50;2.28;;;16.20;59.50;;;;;;4143762;28;20791;-60
2022/02/25 11:28:51;;;;;;;6.45;2.20;;;16.20;59.20;;;;;;4143259;28;20072;-63
2022/02/25 11:31:21;;;;;;;8.50;1.70;;;16.20;59.40;;;;;;4155347;28;20136;-63
2022/02/25 11:33:50;;;;;;;10.55;1.98;;;16.20;59.50;;;;;;4133860;28;20050;-63
2022/02/25 11:36:14;;;;;;;7.10;2.13;;;16.10;59.50;;;;;;4151848;28;20058;-63
2022/02/25 11:38:38;;;;;;;8.68;1.60;;;16.10;59.50;;;;;;4150707;28;20046;-60
2022/02/25 11:41:02;;;;;;;7.72;2.00;;;16.10;59.60;;;;;;4150054;28;20972;-59
2022/02/25 11:43:42;;;;;;;8.90;2.03;;;16.10;59.60;;;;;;4140811;28;20112;-59
2022/02/25 11:46:05;;;;;;;6.78;1.50;;;16.10;59.50;;;;;;4151228;28;20462;-59
2022/02/25 11:48:38;;;;;;;6.18;1.58;;;16.00;59.60;;;;;;4144626;28;20466;-60
2022/02/25 11:51:03;;;;;;;6.13;1.92;;;16.00;59.70;;;;;;4155661;28;20139;-59
2022/02/25 11:53:28;;;;;;;9.93;2.20;;;15.90;59.80;;;;;;4151455;28;20045;-59
2022/02/25 11:55:51;;;;;;;8.65;1.48;;;15.90;59.90;;;;;;4150393;28;20069;-60
2022/02/25 11:58:47;;;;;;;2.97;1.40;;;15.90;60.00;;;;;;4142978;28;20061;-60
2022/02/25 12:01:12;;;;;;;6.40;1.25;;;15.80;60.20;;;;;;4162258;28;20128;-60
2022/02/25 12:03:36;;;;;;;7.38;3.47;;;15.80;60.40;;;;;;4159359;28;20103;-60
2022/02/25 12:05:58;;;;;;;10.90;1.75;;;15.80;60.40;;;;;;4158955;28;20053;-60
2022/02/25 12:08:38;;;;;;;7.65;1.60;;;15.80;60.60;;;;;;4164929;28;20053;-61
2022/02/25 12:11:22;;;;;;;9.13;1.70;;;15.90;60.60;;;;;;4158934;28;20511;-60
2022/02/25 12:13:46;;;;;;;9.07;2.38;;;16.00;60.30;;;;;;4171693;28;20389;-60
2022/02/25 12:16:25;;;;;;;9.65;1.73;;;16.10;59.90;;;;;;4160071;28;20042;-60
2022/02/25 12:18:47;;;;;;;8.07;2.25;;;16.10;59.80;;;;;;4158380;28;20085;-60
2022/02/25 12:21:12;;;;;;;13.07;1.83;;;16.10;59.50;;;;;;4162887;28;20092;-60
2022/02/25 12:23:42;;;;;;;8.50;1.67;;;16.20;59.50;;;;;;4158311;28;20128;-60
2022/02/25 12:26:07;;;;;;;12.77;1.92;;;16.20;59.30;;;;;;4158854;28;20045;-59
2022/02/25 12:28:44;;;;;;;11.88;2.15;;;16.20;59.30;;;;;;4165277;28;20477;-59
2022/02/25 12:31:09;;;;;;;12.07;2.60;;;16.20;60.20;;;;;;4150811;28;20049;-63